Time;durP1;ratioP1;P1;durP2;ratioP2;P2;SDS_P1;SDS_P2;PMS_P1;PMS_P2;Temp;Humidity;BMP_temperature;BMP_pressure;BME280_temperature;BME280_humidity;BME280_pressure;Samples;Min_cycle;Max_cycle;Signal;HPM_P1;HPM_P2
2024/03/07 00:00:07;;;;;;;3.13;1.30;;;20.20;56.00;;;;;;5079985;28;20480;-65
2024/03/07 00:02:33;;;;;;;2.13;1.30;;;20.20;55.90;;;;;;5080736;28;20451;-65
2024/03/07 00:04:59;;;;;;;1.92;1.20;;;20.20;55.90;;;;;;5080529;28;20028;-65
2024/03/07 00:07:25;;;;;;;2.85;1.25;;;20.20;55.90;;;;;;5078739;28;20444;-65
2024/03/07 00:09:53;;;;;;;2.10;1.38;;;20.10;55.80;;;;;;5079775;28;20026;-65
2024/03/07 00:12:19;;;;;;;2.80;1.38;;;20.20;55.80;;;;;;5077561;28;20538;-65
2024/03/07 00:14:45;;;;;;;2.03;1.17;;;20.20;55.80;;;;;;5078891;28;20029;-65
2024/03/07 00:17:11;;;;;;;2.47;1.35;;;20.20;55.80;;;;;;5080539;28;20032;-65
2024/03/07 00:19:36;;;;;;;2.55;1.60;;;20.20;55.80;;;;;;5078030;28;20043;-65
2024/03/07 00:22:02;;;;;;;2.58;1.30;;;20.20;55.80;;;;;;5077927;28;20080;-65
2024/03/07 00:24:28;;;;;;;2.80;1.70;;;20.20;55.70;;;;;;5080605;28;20101;-65
2024/03/07 00:26:53;;;;;;;2.10;1.30;;;20.20;55.80;;;;;;5082674;28;20448;-62
2024/03/07 00:29:20;;;;;;;2.00;1.30;;;20.10;55.70;;;;;;5080284;28;20472;-62
2024/03/07 00:31:46;;;;;;;2.35;1.25;;;20.10;55.70;;;;;;5079020;28;20029;-62
2024/03/07 00:34:16;;;;;;;2.05;1.20;;;20.20;55.70;;;;;;5078014;28;20107;-62
2024/03/07 00:36:42;;;;;;;2.35;1.30;;;20.10;55.60;;;;;;5076483;28;20024;-63
2024/03/07 00:39:11;;;;;;;2.47;1.38;;;20.10;55.70;;;;;;5078857;28;20032;-62
2024/03/07 00:41:41;;;;;;;2.30;1.33;;;20.10;55.80;;;;;;5077855;28;20420;-63
2024/03/07 00:44:09;;;;;;;1.92;1.27;;;20.10;55.60;;;;;;5077877;28;20554;-62
2024/03/07 00:46:36;;;;;;;2.08;1.23;;;20.10;56.20;;;;;;5080402;28;20386;-65
2024/03/07 00:49:02;;;;;;;2.30;1.23;;;20.10;55.70;;;;;;5077820;28;20515;-65
2024/03/07 00:51:28;;;;;;;1.65;1.10;;;20.10;55.60;;;;;;5076806;28;20036;-65
2024/03/07 00:53:54;;;;;;;2.25;1.30;;;20.10;55.60;;;;;;5080209;28;20035;-65
2024/03/07 00:56:21;;;;;;;2.25;1.30;;;20.10;55.70;;;;;;5094872;28;20024;-65
2024/03/07 00:58:48;;;;;;;2.20;1.30;;;20.10;55.60;;;;;;5062328;28;20024;-65
2024/03/07 01:01:15;;;;;;;2.28;1.15;;;20.10;55.70;;;;;;5079517;28;20340;-65
2024/03/07 01:03:40;;;;;;;1.92;1.20;;;20.10;55.60;;;;;;5069119;28;20122;-65
2024/03/07 01:06:06;;;;;;;2.28;1.30;;;20.10;55.60;;;;;;5077687;28;20525;-65
2024/03/07 01:08:32;;;;;;;2.25;1.42;;;20.10;55.70;;;;;;5078757;28;20030;-65
2024/03/07 01:10:58;;;;;;;2.25;1.40;;;20.10;55.60;;;;;;5078094;28;20032;-65
2024/03/07 01:13:24;;;;;;;1.90;1.10;;;20.10;55.60;;;;;;5079755;28;20032;-65
2024/03/07 01:15:50;;;;;;;2.22;1.25;;;20.00;55.60;;;;;;5076649;28;20506;-65
2024/03/07 01:18:17;;;;;;;2.08;1.25;;;20.00;55.60;;;;;;5078189;28;20047;-65
2024/03/07 01:20:42;;;;;;;2.20;1.33;;;20.00;55.50;;;;;;5079708;28;20362;-65
2024/03/07 01:23:08;;;;;;;1.90;1.23;;;20.00;56.10;;;;;;5075649;28;20053;-64
2024/03/07 01:25:34;;;;;;;1.95;1.30;;;20.10;55.60;;;;;;5077553;28;20827;-65
2024/03/07 01:28:04;;;;;;;1.98;1.20;;;20.00;55.50;;;;;;5078275;28;20377;-65
2024/03/07 01:30:29;;;;;;;2.47;1.38;;;20.00;55.50;;;;;;5079415;28;20101;-64
2024/03/07 01:32:55;;;;;;;2.13;1.40;;;20.00;56.00;;;;;;5074177;28;20496;-65
2024/03/07 01:35:21;;;;;;;1.73;1.20;;;20.00;55.50;;;;;;5059763;28;20029;-64
2024/03/07 01:37:46;;;;;;;1.75;1.23;;;20.00;55.50;;;;;;5075968;28;20032;-64
2024/03/07 01:40:14;;;;;;;1.77;1.17;;;20.00;55.50;;;;;;5078032;28;20174;-64
2024/03/07 01:42:40;;;;;;;2.13;1.30;;;20.00;55.50;;;;;;5077569;28;20032;-64
2024/03/07 01:45:08;;;;;;;1.90;1.33;;;20.00;55.50;;;;;;5077971;28;20480;-64
2024/03/07 01:47:34;;;;;;;2.20;1.33;;;20.00;55.50;;;;;;5079793;28;20020;-64
2024/03/07 01:50:00;;;;;;;3.20;1.42;;;20.00;55.50;;;;;;5077586;28;20540;-64
2024/03/07 01:52:26;;;;;;;1.50;1.15;;;20.00;55.50;;;;;;5079311;28;20043;-64
2024/03/07 01:54:52;;;;;;;2.33;1.38;;;20.00;55.50;;;;;;5081800;28;20402;-65
2024/03/07 01:57:19;;;;;;;1.85;1.27;;;20.00;55.40;;;;;;5082322;28;20368;-66
2024/03/07 01:59:45;;;;;;;1.52;1.10;;;20.00;55.50;;;;;;5081322;28;20020;-66
2024/03/07 02:02:10;;;;;;;1.90;1.17;;;20.00;55.40;;;;;;5081418;28;20039;-65
2024/03/07 02:04:36;;;;;;;2.63;1.35;;;20.00;55.50;;;;;;5082149;28;20503;-66
2024/03/07 02:07:01;;;;;;;1.85;1.23;;;20.00;55.40;;;;;;5079268;28;20045;-66
2024/03/07 02:09:27;;;;;;;1.52;1.17;;;20.00;55.40;;;;;;5099616;28;20120;-65
2024/03/07 02:11:53;;;;;;;2.10;1.40;;;19.90;55.30;;;;;;5063422;28;20422;-65
2024/03/07 02:14:18;;;;;;;2.03;1.20;;;20.00;55.40;;;;;;5082776;28;20358;-66
2024/03/07 02:16:44;;;;;;;1.67;1.10;;;20.00;55.40;;;;;;5080908;28;20028;-65
2024/03/07 02:19:15;;;;;;;1.42;1.17;;;19.90;55.30;;;;;;5066237;28;20056;-66
2024/03/07 02:21:41;;;;;;;2.00;1.27;;;20.00;55.40;;;;;;5080902;28;20025;-66
2024/03/07 02:24:06;;;;;;;1.70;1.20;;;20.00;55.30;;;;;;5080061;28;20035;-66
2024/03/07 02:26:32;;;;;;;1.83;1.40;;;19.90;55.30;;;;;;5064397;28;20344;-66
2024/03/07 02:28:58;;;;;;;1.80;1.20;;;20.00;55.30;;;;;;5081818;28;20028;-65
2024/03/07 02:31:34;;;;;;;1.73;1.23;;;19.90;55.30;;;;;;5081418;28;20029;-64
2024/03/07 02:34:02;;;;;;;2.25;1.40;;;20.00;55.30;;;;;;5097654;28;20025;-64
2024/03/07 02:36:28;;;;;;;1.88;1.25;;;19.90;55.20;;;;;;5079913;28;20104;-64
2024/03/07 02:38:54;;;;;;;1.73;1.27;;;19.90;55.20;;;;;;5078928;28;20488;-65
2024/03/07 02:41:20;;;;;;;2.05;1.10;;;19.90;55.20;;;;;;5081222;28;20472;-64
2024/03/07 02:43:46;;;;;;;1.63;1.10;;;19.90;55.20;;;;;;5082024;28;20362;-64
2024/03/07 02:46:11;;;;;;;1.90;1.20;;;19.90;55.20;;;;;;5081693;28;20035;-64
2024/03/07 02:48:38;;;;;;;1.98;1.27;;;19.90;55.20;;;;;;5082931;28;20037;-63
2024/03/07 02:51:05;;;;;;;1.73;1.10;;;19.90;55.20;;;;;;5081423;28;20020;-61
2024/03/07 02:53:32;;;;;;;1.50;1.13;;;19.90;55.20;;;;;;5076349;28;20017;-62
2024/03/07 02:55:58;;;;;;;1.67;1.20;;;19.90;55.20;;;;;;5078391;28;20056;-62
2024/03/07 02:58:24;;;;;;;2.20;1.40;;;19.90;55.20;;;;;;5080967;28;20492;-61
2024/03/07 03:01:02;;;;;;;1.90;1.40;;;19.90;55.20;;;;;;5080832;28;20108;-61
2024/03/07 03:03:31;;;;;;;1.85;1.20;;;19.90;55.20;;;;;;5061762;28;20021;-62
2024/03/07 03:05:57;;;;;;;1.80;1.30;;;19.90;55.20;;;;;;5061263;28;20119;-61
2024/03/07 03:08:23;;;;;;;1.85;1.27;;;19.90;55.20;;;;;;5081141;28;20178;-65
2024/03/07 03:10:53;;;;;;;1.85;1.20;;;19.90;55.20;;;;;;5081015;28;20025;-65
2024/03/07 03:13:18;;;;;;;2.28;1.30;;;19.90;55.20;;;;;;5081116;28;20043;-65
2024/03/07 03:15:44;;;;;;;1.52;1.20;;;19.90;55.20;;;;;;5079362;28;20350;-65
2024/03/07 03:18:09;;;;;;;2.20;1.40;;;19.90;55.20;;;;;;5082381;28;20174;-65
2024/03/07 03:20:38;;;;;;;1.75;1.30;;;19.90;55.20;;;;;;5081555;28;20329;-65
2024/03/07 03:23:05;;;;;;;1.50;1.10;;;19.90;55.20;;;;;;5079014;28;20028;-65
2024/03/07 03:25:34;;;;;;;1.92;1.30;;;19.80;55.10;;;;;;5062261;28;20376;-65
2024/03/07 03:28:03;;;;;;;2.25;1.40;;;19.80;55.10;;;;;;5079707;28;20032;-65
2024/03/07 03:30:29;;;;;;;1.88;1.25;;;19.80;55.10;;;;;;5081617;28;20040;-65
2024/03/07 03:32:55;;;;;;;1.90;1.25;;;19.80;55.10;;;;;;5079145;28;20082;-65
2024/03/07 03:35:21;;;;;;;1.88;1.20;;;19.80;55.10;;;;;;5080203;28;20449;-65
2024/03/07 03:37:46;;;;;;;1.67;1.20;;;19.80;55.10;;;;;;5077823;28;20035;-62
2024/03/07 03:40:12;;;;;;;1.85;1.20;;;19.80;55.10;;;;;;5080402;28;20020;-62
2024/03/07 03:42:39;;;;;;;1.55;1.23;;;19.80;55.10;;;;;;5080309;28;20368;-62
2024/03/07 03:45:06;;;;;;;2.47;1.50;;;19.90;55.10;;;;;;5079187;28;20032;-62
2024/03/07 03:47:36;;;;;;;1.63;1.20;;;19.80;55.10;;;;;;5080180;28;20095;-61
2024/03/07 03:50:07;;;;;;;2.17;1.40;;;19.80;55.60;;;;;;5079663;28;20032;-62
2024/03/07 03:52:33;;;;;;;1.80;1.33;;;19.80;55.10;;;;;;5079819;28;20201;-62
2024/03/07 03:55:04;;;;;;;1.55;1.20;;;19.80;55.10;;;;;;5080037;28;20432;-62
2024/03/07 03:57:30;;;;;;;2.10;1.45;;;19.80;55.10;;;;;;5094087;28;20484;-62
2024/03/07 03:59:56;;;;;;;2.42;1.50;;;19.80;55.10;;;;;;5080981;28;20024;-62
2024/03/07 04:02:25;;;;;;;2.15;1.45;;;19.80;55.10;;;;;;5080489;28;20448;-61
2024/03/07 04:04:51;;;;;;;2.03;1.30;;;19.80;55.10;;;;;;5082494;28;20480;-61
2024/03/07 04:07:18;;;;;;;2.10;1.40;;;19.80;55.10;;;;;;5078936;28;20028;-63
2024/03/07 04:09:45;;;;;;;2.08;1.42;;;19.80;55.60;;;;;;5080365;28;20032;-62
2024/03/07 04:12:11;;;;;;;1.98;1.30;;;19.80;55.10;;;;;;5079425;28;20024;-63
2024/03/07 04:14:43;;;;;;;2.50;1.23;;;19.80;55.10;;;;;;5081417;28;20032;-62
2024/03/07 04:17:13;;;;;;;1.77;1.20;;;19.80;55.10;;;;;;5081565;28;20032;-63
2024/03/07 04:19:42;;;;;;;1.83;1.30;;;19.80;55.10;;;;;;5080459;28;20032;-63
2024/03/07 04:22:08;;;;;;;1.95;1.40;;;19.80;55.10;;;;;;5060855;28;20485;-62
2024/03/07 04:24:35;;;;;;;1.70;1.20;;;19.80;55.10;;;;;;5079489;28;20037;-62
2024/03/07 04:27:04;;;;;;;1.80;1.40;;;19.80;55.10;;;;;;5077937;28;20369;-61
2024/03/07 04:29:32;;;;;;;2.17;1.48;;;19.80;55.10;;;;;;5080652;28;20024;-62
2024/03/07 04:31:58;;;;;;;2.15;1.42;;;19.80;55.20;;;;;;5079272;28;20024;-61
2024/03/07 04:34:23;;;;;;;1.88;1.30;;;19.70;55.10;;;;;;5076986;28;20472;-63
2024/03/07 04:36:49;;;;;;;1.92;1.40;;;19.80;55.10;;;;;;5079458;28;20035;-62
2024/03/07 04:39:33;;;;;;;2.78;1.40;;;19.70;55.10;;;;;;5078507;28;20111;-62
2024/03/07 04:42:02;;;;;;;2.22;1.50;;;19.70;55.60;;;;;;5079840;28;20370;-61
2024/03/07 04:44:29;;;;;;;2.10;1.42;;;19.70;55.10;;;;;;5079129;28;20032;-61
2024/03/07 04:46:56;;;;;;;2.15;1.40;;;19.70;55.10;;;;;;5079044;28;20024;-62
2024/03/07 04:49:26;;;;;;;2.00;1.40;;;19.70;55.10;;;;;;5079393;28;20053;-66
2024/03/07 04:51:52;;;;;;;;;;;19.70;55.10;;;;;;5078767;28;20081;-67
2024/03/07 04:54:18;;;;;;;2.08;1.38;;;19.70;55.10;;;;;;5077241;28;19915;-66
2024/03/07 04:56:45;;;;;;;2.38;1.70;;;19.70;55.10;;;;;;5080902;28;20373;-66
2024/03/07 04:59:11;;;;;;;1.88;1.40;;;19.70;55.10;;;;;;5079960;28;20074;-66
2024/03/07 05:01:38;;;;;;;1.83;1.25;;;19.70;55.10;;;;;;5080134;28;20028;-65
2024/03/07 05:04:04;;;;;;;2.40;1.50;;;19.70;55.10;;;;;;5063299;28;20106;-66
2024/03/07 05:06:33;;;;;;;2.15;1.50;;;19.70;55.20;;;;;;5080586;28;20055;-65
2024/03/07 05:09:00;;;;;;;2.47;1.75;;;19.70;55.10;;;;;;5060572;28;20035;-67
2024/03/07 05:11:26;;;;;;;2.13;1.50;;;19.70;55.20;;;;;;5078936;28;20120;-66
2024/03/07 05:13:51;;;;;;;2.38;1.48;;;19.70;55.20;;;;;;5079769;28;20495;-66
2024/03/07 05:16:17;;;;;;;2.10;1.55;;;19.60;55.20;;;;;;5077968;28;20033;-66
2024/03/07 05:18:43;;;;;;;2.40;1.60;;;19.70;55.20;;;;;;5078936;28;20029;-66
2024/03/07 05:23:53;;;;;;;2.10;1.50;;;19.70;55.20;;;;;;5076311;28;20494;-66
2024/03/07 05:26:19;;;;;;;2.05;1.40;;;19.70;55.20;;;;;;5079424;28;20032;-66
2024/03/07 05:28:45;;;;;;;2.20;1.50;;;19.70;55.30;;;;;;5077697;28;20368;-65
2024/03/07 05:31:12;;;;;;;1.88;1.42;;;19.70;55.30;;;;;;5079272;28;20024;-64
2024/03/07 05:33:38;;;;;;;2.08;1.50;;;19.60;55.20;;;;;;5076741;28;20730;-65
2024/03/07 05:36:14;;;;;;;2.08;1.45;;;19.60;55.20;;;;;;5079604;28;20380;-64
2024/03/07 05:38:44;;;;;;;2.25;1.60;;;19.70;55.30;;;;;;5077818;28;20040;-64
2024/03/07 05:41:12;;;;;;;2.08;1.58;;;19.70;55.30;;;;;;5075673;28;20376;-64
2024/03/07 05:43:40;;;;;;;2.38;1.50;;;19.70;55.30;;;;;;5077025;28;20429;-64
2024/03/07 05:46:06;;;;;;;2.27;1.50;;;19.70;55.30;;;;;;5076382;28;20031;-64
2024/03/07 05:48:33;;;;;;;3.00;1.67;;;19.70;55.30;;;;;;5077376;28;20116;-64
2024/03/07 05:51:00;;;;;;;2.10;1.50;;;19.60;55.30;;;;;;5076474;28;20028;-64
2024/03/07 05:53:25;;;;;;;2.20;1.50;;;19.70;55.30;;;;;;5078302;28;20012;-64
2024/03/07 05:55:52;;;;;;;2.20;1.50;;;19.70;55.40;;;;;;5076967;28;20013;-64
2024/03/07 05:58:17;;;;;;;2.08;1.75;;;19.70;55.40;;;;;;5061904;28;20074;-65
2024/03/07 06:00:49;;;;;;;2.35;1.70;;;19.70;55.40;;;;;;5080358;28;20032;-65
2024/03/07 06:03:17;;;;;;;3.40;1.90;;;19.70;55.40;;;;;;5078040;28;20024;-65
2024/03/07 06:05:43;;;;;;;2.63;1.90;;;19.70;55.50;;;;;;5077532;28;20028;-65
2024/03/07 06:08:09;;;;;;;2.70;2.00;;;19.60;55.60;;;;;;5077737;28;20031;-65
2024/03/07 06:10:35;;;;;;;3.42;1.90;;;19.60;55.70;;;;;;5078883;28;20024;-65
2024/03/07 06:13:00;;;;;;;2.67;2.00;;;19.70;55.80;;;;;;5079392;28;20106;-65
2024/03/07 06:15:26;;;;;;;3.47;2.20;;;19.60;55.80;;;;;;5077982;28;20027;-65
2024/03/07 06:17:51;;;;;;;3.33;2.03;;;19.70;55.90;;;;;;5077341;28;20033;-62
2024/03/07 06:20:24;;;;;;;2.63;1.95;;;19.70;56.00;;;;;;5077090;28;20032;-62
2024/03/07 06:22:50;;;;;;;4.43;1.90;;;19.70;56.00;;;;;;5077207;28;20044;-61
2024/03/07 06:25:20;;;;;;;3.55;1.85;;;19.70;56.10;;;;;;5075250;28;20086;-62
2024/03/07 06:27:48;;;;;;;;;;;19.70;56.10;;;;;;5079118;28;20032;-63
2024/03/07 06:30:17;;;;;;;2.60;1.80;;;19.70;56.20;;;;;;5078544;28;19988;-61
2024/03/07 06:32:44;;;;;;;2.33;1.70;;;19.70;56.70;;;;;;5075456;28;20108;-61
2024/03/07 06:35:12;;;;;;;3.00;1.95;;;19.70;56.10;;;;;;5080641;28;20028;-61
2024/03/07 06:37:39;;;;;;;3.00;1.93;;;19.70;56.50;;;;;;5078958;28;20029;-64
2024/03/07 06:40:09;;;;;;;2.67;1.67;;;19.70;56.40;;;;;;5079482;28;20016;-64
2024/03/07 06:42:36;;;;;;;2.40;1.63;;;19.70;56.80;;;;;;5080491;28;20574;-65
2024/03/07 06:45:03;;;;;;;2.67;1.58;;;19.70;56.80;;;;;;5081697;28;20511;-64
2024/03/07 06:47:29;;;;;;;2.38;1.70;;;19.70;57.00;;;;;;5081246;28;20645;-65
2024/03/07 06:49:55;;;;;;;2.78;1.88;;;19.80;57.20;;;;;;5080206;28;20103;-65
2024/03/07 06:52:21;;;;;;;2.15;1.40;;;19.80;57.20;;;;;;5080707;28;20047;-64
2024/03/07 06:54:47;;;;;;;3.15;1.80;;;19.80;57.10;;;;;;5081724;28;20455;-64
2024/03/07 06:57:13;;;;;;;2.58;1.67;;;19.80;57.20;;;;;;5079798;28;20531;-64
2024/03/07 06:59:38;;;;;;;2.63;1.60;;;19.80;57.10;;;;;;5080848;28;20017;-65
2024/03/07 07:02:04;;;;;;;2.50;1.77;;;19.80;56.90;;;;;;5080953;28;20025;-65
2024/03/07 07:04:41;;;;;;;2.47;1.67;;;19.80;56.90;;;;;;5081093;28;20040;-64
2024/03/07 07:07:12;;;;;;;2.70;1.80;;;19.90;56.80;;;;;;5063495;28;20035;-65
2024/03/07 07:09:38;;;;;;;2.72;1.80;;;19.90;56.90;;;;;;5078220;28;20572;-64
2024/03/07 07:12:04;;;;;;;2.67;1.60;;;19.90;56.70;;;;;;5080413;28;20028;-64
2024/03/07 07:14:30;;;;;;;2.80;1.90;;;19.90;56.80;;;;;;5080605;28;20818;-65
2024/03/07 07:17:01;;;;;;;2.13;1.60;;;20.00;56.70;;;;;;5083302;28;20024;-64
2024/03/07 07:19:27;;;;;;;2.53;1.75;;;20.00;56.70;;;;;;5081829;28;20082;-65
2024/03/07 07:21:54;;;;;;;2.75;1.70;;;20.00;56.70;;;;;;5060926;28;20958;-64
2024/03/07 07:24:23;;;;;;;2.75;1.60;;;20.00;56.70;;;;;;5077277;28;20032;-64
2024/03/07 07:26:52;;;;;;;3.70;1.80;;;20.00;56.60;;;;;;5078749;28;20020;-64
2024/03/07 07:29:18;;;;;;;3.00;1.70;;;20.00;56.60;;;;;;5064923;28;20065;-65
2024/03/07 07:31:44;;;;;;;2.58;1.67;;;20.00;56.70;;;;;;5080560;28;20028;-65
2024/03/07 07:34:11;;;;;;;2.65;1.80;;;20.00;56.50;;;;;;5080822;28;20027;-65
2024/03/07 07:36:36;;;;;;;2.65;1.63;;;20.00;56.50;;;;;;5081069;28;20480;-65
2024/03/07 07:39:03;;;;;;;2.38;1.70;;;20.10;56.50;;;;;;5076436;28;20044;-64
2024/03/07 07:41:30;;;;;;;2.55;1.70;;;20.10;56.50;;;;;;5078550;28;20539;-65
2024/03/07 07:43:57;;;;;;;3.70;1.70;;;20.10;56.50;;;;;;5080503;28;20024;-65
2024/03/07 07:46:23;;;;;;;2.10;1.58;;;20.10;56.70;;;;;;5080891;28;20029;-65
2024/03/07 07:48:48;;;;;;;2.53;1.60;;;20.10;56.70;;;;;;5079941;28;20039;-65
2024/03/07 07:51:14;;;;;;;3.30;1.65;;;20.10;56.60;;;;;;5081681;28;20457;-65
2024/03/07 07:53:40;;;;;;;2.63;1.70;;;20.10;56.70;;;;;;5081436;28;20025;-65
2024/03/07 07:56:07;;;;;;;2.65;1.80;;;20.20;56.90;;;;;;5077354;28;20652;-65
2024/03/07 07:58:33;;;;;;;2.95;1.80;;;20.20;56.70;;;;;;5081374;28;20047;-65
2024/03/07 08:00:58;;;;;;;2.70;1.60;;;20.20;56.80;;;;;;5080401;28;20032;-65
2024/03/07 08:03:24;;;;;;;2.40;1.80;;;20.20;56.60;;;;;;5079521;28;20021;-65
2024/03/07 08:05:49;;;;;;;2.53;1.67;;;20.20;56.90;;;;;;5081015;28;20020;-65
2024/03/07 08:08:16;;;;;;;2.40;1.70;;;20.20;57.20;;;;;;5079271;28;20107;-65
2024/03/07 08:10:42;;;;;;;3.83;1.70;;;20.30;57.30;;;;;;5078576;28;20500;-65
2024/03/07 08:13:10;;;;;;;2.50;1.75;;;20.30;57.30;;;;;;5079931;28;20028;-65
2024/03/07 08:15:36;;;;;;;2.30;1.50;;;20.30;57.10;;;;;;5079844;28;20031;-65
2024/03/07 08:18:02;;;;;;;2.45;1.85;;;20.30;57.10;;;;;;5080871;28;20020;-66
2024/03/07 08:20:28;;;;;;;2.17;1.67;;;20.40;56.90;;;;;;5081466;28;20028;-65
2024/03/07 08:22:55;;;;;;;2.65;1.90;;;20.40;56.80;;;;;;5075380;28;20039;-65
2024/03/07 08:25:25;;;;;;;2.30;1.70;;;20.40;56.90;;;;;;5075307;28;20024;-65
2024/03/07 08:27:52;;;;;;;2.55;1.80;;;20.40;56.60;;;;;;5079202;28;20052;-66
2024/03/07 08:30:19;;;;;;;2.78;1.88;;;20.40;56.60;;;;;;5080310;28;20027;-66
2024/03/07 08:32:46;;;;;;;4.18;1.77;;;20.40;56.70;;;;;;5080575;28;20384;-65
2024/03/07 08:35:12;;;;;;;2.50;1.70;;;20.40;56.60;;;;;;5079459;28;20098;-66
2024/03/07 08:37:40;;;;;;;2.28;1.67;;;20.50;56.60;;;;;;5078612;28;20150;-65
2024/03/07 08:40:09;;;;;;;2.70;1.70;;;20.40;56.50;;;;;;5075720;28;20542;-61
2024/03/07 08:42:36;;;;;;;2.38;1.70;;;20.50;56.50;;;;;;5077263;28;20131;-62
2024/03/07 08:45:05;;;;;;;3.13;2.15;;;20.50;56.40;;;;;;5079230;28;20064;-63
2024/03/07 08:47:35;;;;;;;;;;;20.50;56.30;;;;;;5061921;28;20028;-62
2024/03/07 08:50:02;;;;;;;2.50;1.70;;;20.50;56.20;;;;;;5079924;28;20376;-62
2024/03/07 08:52:27;;;;;;;2.42;1.90;;;20.50;56.20;;;;;;5078851;28;20025;-62
2024/03/07 08:54:54;;;;;;;3.17;1.95;;;20.50;56.10;;;;;;5076211;28;20340;-61
2024/03/07 08:57:21;;;;;;;2.80;1.85;;;20.50;56.10;;;;;;5078298;28;20024;-62
2024/03/07 08:59:48;;;;;;;2.97;1.90;;;20.50;56.10;;;;;;5078391;28;20032;-64
2024/03/07 09:02:14;;;;;;;2.63;1.92;;;20.50;56.10;;;;;;5078698;28;20025;-65
2024/03/07 09:04:40;;;;;;;2.65;2.00;;;20.60;56.10;;;;;;5079549;28;20027;-65
2024/03/07 09:07:06;;;;;;;2.22;1.60;;;20.60;56.50;;;;;;5061304;28;20495;-65
2024/03/07 09:09:35;;;;;;;2.67;1.85;;;20.60;55.90;;;;;;5076390;28;20119;-64
2024/03/07 09:12:02;;;;;;;2.28;1.63;;;20.60;55.80;;;;;;5077911;28;20365;-65
2024/03/07 09:14:28;;;;;;;3.30;2.10;;;20.60;55.70;;;;;;5077739;28;20029;-65
2024/03/07 09:16:54;;;;;;;2.60;1.80;;;20.60;55.70;;;;;;5077952;28;20043;-65
2024/03/07 09:19:23;;;;;;;2.63;1.90;;;20.60;55.70;;;;;;5079040;28;20032;-65
2024/03/07 09:21:52;;;;;;;2.58;1.77;;;20.60;55.70;;;;;;5059784;28;20032;-65
2024/03/07 09:24:22;;;;;;;2.67;1.70;;;20.60;55.60;;;;;;5078875;28;20043;-65
2024/03/07 09:26:49;;;;;;;2.80;2.03;;;20.60;55.50;;;;;;5075490;28;20277;-65
2024/03/07 09:29:15;;;;;;;2.90;2.10;;;20.60;55.50;;;;;;5074172;28;20439;-65
2024/03/07 09:31:41;;;;;;;3.30;1.85;;;20.60;55.40;;;;;;5079650;28;20056;-65
2024/03/07 09:34:08;;;;;;;2.95;1.90;;;20.60;55.40;;;;;;5079211;28;20059;-65
2024/03/07 09:36:34;;;;;;;3.53;2.13;;;20.60;55.40;;;;;;5077585;28;20544;-65
2024/03/07 09:38:59;;;;;;;3.72;2.05;;;20.60;55.30;;;;;;5079060;28;20048;-66
2024/03/07 09:41:25;;;;;;;2.67;2.00;;;20.70;55.20;;;;;;5076460;28;20024;-65
2024/03/07 09:43:55;;;;;;;2.90;2.10;;;20.70;55.20;;;;;;5078199;28;20460;-65
2024/03/07 09:46:23;;;;;;;2.60;2.03;;;20.70;55.10;;;;;;5077835;28;20024;-64
2024/03/07 09:48:53;;;;;;;2.97;1.90;;;20.70;55.00;;;;;;5078770;28;20028;-66
2024/03/07 09:51:23;;;;;;;2.50;1.90;;;20.80;55.00;;;;;;5077151;28;20020;-66
2024/03/07 09:53:53;;;;;;;2.90;2.10;;;20.80;54.80;;;;;;5077303;28;20031;-66
2024/03/07 09:56:22;;;;;;;2.38;1.90;;;20.90;54.70;;;;;;5077195;28;20426;-66
2024/03/07 09:58:49;;;;;;;3.25;2.20;;;20.90;55.20;;;;;;5077386;28;20021;-66
2024/03/07 10:01:18;;;;;;;2.50;1.80;;;21.00;54.60;;;;;;5077501;28;20083;-66
2024/03/07 10:03:47;;;;;;;3.40;2.20;;;21.00;54.50;;;;;;5080463;28;20112;-65
2024/03/07 10:06:13;;;;;;;3.25;2.35;;;21.00;54.50;;;;;;5078084;28;20028;-66
2024/03/07 10:08:41;;;;;;;2.83;2.08;;;21.00;54.40;;;;;;5078119;28;20020;-66
2024/03/07 10:11:08;;;;;;;3.45;2.17;;;21.10;54.40;;;;;;5058236;28;20020;-66
2024/03/07 10:13:35;;;;;;;2.67;2.10;;;21.10;54.40;;;;;;5082215;28;20085;-66
2024/03/07 10:16:01;;;;;;;2.60;2.00;;;21.10;54.30;;;;;;5081729;28;20020;-66
2024/03/07 10:18:27;;;;;;;3.35;2.30;;;21.10;54.20;;;;;;5063635;28;20036;-67
2024/03/07 10:20:56;;;;;;;2.88;1.92;;;21.20;54.20;;;;;;5082009;28;20488;-66
2024/03/07 10:23:22;;;;;;;2.55;2.03;;;21.20;54.10;;;;;;5080968;28;20028;-66
2024/03/07 10:25:48;;;;;;;2.90;2.10;;;21.20;54.10;;;;;;5079991;28;20566;-66
2024/03/07 10:28:16;;;;;;;2.90;2.10;;;21.20;54.60;;;;;;5084427;28;20066;-66
2024/03/07 10:30:46;;;;;;;2.80;2.00;;;21.20;54.00;;;;;;5084031;28;20034;-65
2024/03/07 10:33:12;;;;;;;;;;;21.30;54.00;;;;;;5080983;28;20389;-66
2024/03/07 10:35:38;;;;;;;2.90;2.35;;;21.30;53.80;;;;;;5063059;28;19919;-66
2024/03/07 10:38:06;;;;;;;2.83;2.10;;;21.30;53.90;;;;;;5073008;28;20020;-65
2024/03/07 10:40:35;;;;;;;3.15;2.30;;;21.30;53.80;;;;;;5079478;28;20029;-62
2024/03/07 10:43:09;;;;;;;2.90;2.20;;;21.30;53.80;;;;;;5082582;28;20048;-62
2024/03/07 10:45:42;;;;;;;5.75;3.60;;;21.30;53.70;;;;;;5081885;28;20113;-62
2024/03/07 10:48:11;;;;;;;9.38;6.32;;;21.30;53.70;;;;;;5081559;28;20468;-62
2024/03/07 10:50:47;;;;;;;19.88;14.82;;;21.30;54.20;;;;;;5079344;28;20480;-62
2024/03/07 10:53:18;;;;;;;35.45;24.30;;;21.30;53.70;;;;;;5081046;28;20028;-63
2024/03/07 10:56:03;;;;;;;43.55;32.00;;;21.30;53.70;;;;;;5079954;28;20492;-62
2024/03/07 10:59:22;;;;;;;49.65;36.42;;;21.30;53.70;;;;;;5084265;28;20024;-62
2024/03/07 11:02:37;;;;;;;64.72;44.65;;;21.30;53.60;;;;;;5086942;28;20036;-65
2024/03/07 11:05:08;;;;;;;74.55;52.80;;;21.30;54.10;;;;;;5070422;28;20150;-65
2024/03/07 11:07:34;;;;;;;80.65;56.28;;;21.30;53.70;;;;;;5083819;28;20451;-65
2024/03/07 11:10:03;;;;;;;82.47;58.15;;;21.30;53.60;;;;;;5082900;28;20527;-64
2024/03/07 11:12:30;;;;;;;87.20;63.28;;;21.30;53.60;;;;;;5079972;28;20027;-65
2024/03/07 11:14:57;;;;;;;94.90;65.28;;;21.30;53.60;;;;;;5081452;28;20032;-65
2024/03/07 11:17:24;;;;;;;96.38;68.22;;;21.30;53.60;;;;;;5081409;28;20110;-65
2024/03/07 11:19:49;;;;;;;97.78;69.75;;;21.40;53.60;;;;;;5085181;28;20028;-65
2024/03/07 11:22:34;;;;;;;98.60;70.75;;;21.40;53.60;;;;;;5084482;28;20072;-65
2024/03/07 11:25:08;;;;;;;105.93;74.18;;;21.40;53.50;;;;;;5082231;28;20029;-65
2024/03/07 11:27:38;;;;;;;107.32;74.53;;;21.40;53.50;;;;;;5080864;28;20305;-65
2024/03/07 11:30:08;;;;;;;110.40;77.88;;;21.40;53.40;;;;;;5064332;28;20024;-67
2024/03/07 11:32:41;;;;;;;110.80;79.45;;;21.40;53.40;;;;;;5083995;28;20066;-65
2024/03/07 11:35:15;;;;;;;115.38;80.40;;;21.40;53.30;;;;;;5081769;28;20043;-65
2024/03/07 11:37:48;;;;;;;107.97;79.15;;;21.40;53.30;;;;;;5084269;28;20370;-65
2024/03/07 11:40:20;;;;;;;108.82;78.85;;;21.50;53.30;;;;;;5069423;28;20024;-64
2024/03/07 11:42:50;;;;;;;111.43;79.20;;;21.50;53.30;;;;;;5078694;28;20031;-65
2024/03/07 11:45:32;;;;;;;106.07;77.97;;;21.50;53.30;;;;;;5089999;28;20036;-64
2024/03/07 11:48:09;;;;;;;113.75;81.45;;;21.50;53.20;;;;;;5066937;28;20119;-65
2024/03/07 11:50:41;;;;;;;107.57;77.82;;;21.40;53.10;;;;;;5071280;28;20024;-63
2024/03/07 11:53:08;;;;;;;108.57;80.25;;;21.50;53.10;;;;;;5081539;28;20506;-62
2024/03/07 11:55:47;;;;;;;111.82;81.10;;;21.50;53.10;;;;;;5080231;28;20503;-62
2024/03/07 11:58:18;;;;;;;114.72;81.47;;;21.50;53.00;;;;;;5081172;28;20027;-62
2024/03/07 12:00:44;;;;;;;112.20;81.75;;;21.50;53.00;;;;;;5081026;28;20443;-61
2024/03/07 12:03:25;;;;;;;116.13;83.65;;;21.50;53.10;;;;;;5081803;28;20468;-61
2024/03/07 12:05:52;;;;;;;111.57;82.90;;;21.60;53.10;;;;;;5081581;28;20058;-63
2024/03/07 12:08:17;;;;;;;112.10;81.20;;;21.50;52.90;;;;;;5079785;28;20488;-63
2024/03/07 12:10:44;;;;;;;109.85;80.15;;;21.60;52.90;;;;;;5080320;28;20032;-64
2024/03/07 12:13:11;;;;;;;109.50;80.38;;;21.60;52.80;;;;;;5076208;28;20035;-66
2024/03/07 12:15:38;;;;;;;113.75;79.30;;;21.60;52.80;;;;;;5070161;28;20365;-66
2024/03/07 12:18:08;;;;;;;109.38;77.60;;;21.60;52.80;;;;;;5080570;28;20155;-65
2024/03/07 12:20:36;;;;;;;107.53;76.97;;;21.60;52.80;;;;;;5076935;28;20480;-67
2024/03/07 12:23:03;;;;;;;106.95;75.55;;;21.60;52.80;;;;;;5078673;28;20535;-65
2024/03/07 12:25:39;;;;;;;103.45;73.78;;;21.60;52.80;;;;;;5080232;28;20036;-66
2024/03/07 12:28:06;;;;;;;100.80;73.60;;;21.60;52.70;;;;;;5079260;28;20031;-67
2024/03/07 12:30:37;;;;;;;94.03;68.05;;;21.60;52.70;;;;;;5081010;28;20028;-65
2024/03/07 12:33:10;;;;;;;97.93;70.22;;;21.60;52.90;;;;;;5079062;28;20492;-65
2024/03/07 12:35:36;;;;;;;92.35;68.05;;;21.60;52.90;;;;;;5061648;28;20495;-66
2024/03/07 12:38:03;;;;;;;93.65;67.90;;;21.60;52.90;;;;;;5078876;28;20058;-66
2024/03/07 12:40:33;;;;;;;95.38;68.40;;;21.60;53.00;;;;;;5079210;28;20017;-66
2024/03/07 12:43:00;;;;;;;98.78;70.15;;;21.60;53.00;;;;;;5078232;28;20547;-66
2024/03/07 12:45:28;;;;;;;96.82;69.93;;;21.60;53.00;;;;;;5080173;28;20077;-65
2024/03/07 12:47:54;;;;;;;97.70;68.68;;;21.60;53.10;;;;;;5081056;28;20024;-65